Time;durP1;ratioP1;P1;durP2;ratioP2;P2;SDS_P1;SDS_P2;PMS_P1;PMS_P2;Temp;Humidity;BMP_temperature;BMP_pressure;BME280_temperature;BME280_humidity;BME280_pressure;Samples;Min_cycle;Max_cycle;Signal;HPM_P1;HPM_P2
2023/12/18 00:00:21;;;;;;;13.98;7.07;;;;;;;;;;5053468;28;20017;-69
2023/12/18 00:02:46;;;;;;;12.18;7.35;;;;;;;;;;5053425;28;20021;-70
2023/12/18 00:05:12;;;;;;;12.35;6.45;;;;;;;;;;5053554;28;20454;-70
2023/12/18 00:07:37;;;;;;;16.77;7.40;;;;;;;;;;5053578;28;20470;-69
2023/12/18 00:10:03;;;;;;;13.52;7.47;;;;;;;;;;5053944;28;20028;-69
2023/12/18 00:12:28;;;;;;;9.13;5.18;;;;;;;;;;5053625;28;20021;-70
2023/12/18 00:14:54;;;;;;;13.23;6.38;;;;;;;;;;5053783;28;20087;-69
2023/12/18 00:17:19;;;;;;;15.32;7.38;;;;;;;;;;5053602;28;20025;-69
2023/12/18 00:19:44;;;;;;;11.05;6.38;;;;;;;;;;5053740;28;20029;-70
2023/12/18 00:22:10;;;;;;;11.75;6.47;;;;;;;;;;5053229;28;20029;-69
2023/12/18 00:24:35;;;;;;;14.18;7.72;;;;;;;;;;5053479;28;20028;-69
2023/12/18 00:27:01;;;;;;;14.05;7.30;;;;;;;;;;5052036;28;20529;-70
2023/12/18 00:29:26;;;;;;;15.63;7.28;;;;;;;;;;5053494;28;20466;-70
2023/12/18 00:31:52;;;;;;;15.60;7.65;;;;;;;;;;5053393;28;20021;-70
2023/12/18 00:34:17;;;;;;;14.70;7.03;;;;;;;;;;5052232;28;20171;-69
2023/12/18 00:36:43;;;;;;;16.60;7.72;;;;;;;;;;5053447;28;20044;-69
2023/12/18 00:39:09;;;;;;;13.90;6.78;;;;;;;;;;5053407;28;20479;-69
2023/12/18 00:41:34;;;;;;;13.23;6.57;;;;;;;;;;5053094;28;20429;-69
2023/12/18 00:44:00;;;;;;;15.10;6.95;;;;;;;;;;5053279;28;20017;-69
2023/12/18 00:46:25;;;;;;;17.40;7.50;;;;;;;;;;5052641;28;20063;-70
2023/12/18 00:48:51;;;;;;;15.32;6.95;;;;;;;;;;5053225;28;20021;-69
2023/12/18 00:51:17;;;;;;;18.13;8.40;;;;;;;;;;5053417;28;20091;-69
2023/12/18 00:53:42;;;;;;;15.90;7.07;;;;;;;;;;5053563;28;20041;-70
2023/12/18 00:56:08;;;;;;;10.65;6.20;;;;;;;;;;5052842;28;20482;-70
2023/12/18 00:58:33;;;;;;;11.95;6.95;;;;;;;;;;5053037;28;20059;-70
2023/12/18 01:00:59;;;;;;;17.17;7.20;;;;;;;;;;5053043;28;20028;-70
2023/12/18 01:03:24;;;;;;;12.13;7.10;;;;;;;;;;5052996;28;20025;-69
2023/12/18 01:05:49;;;;;;;13.35;7.05;;;;;;;;;;5051564;28;20378;-69
2023/12/18 01:08:15;;;;;;;15.68;6.60;;;;;;;;;;5052888;28;20028;-69
2023/12/18 01:10:41;;;;;;;12.75;6.78;;;;;;;;;;5052494;28;20036;-69
2023/12/18 01:13:06;;;;;;;9.95;5.13;;;;;;;;;;5051543;28;20442;-69
2023/12/18 01:15:31;;;;;;;17.23;8.10;;;;;;;;;;5052756;28;20509;-70
2023/12/18 01:17:57;;;;;;;13.52;6.00;;;;;;;;;;5052766;28;20108;-69
2023/12/18 01:20:23;;;;;;;11.30;6.03;;;;;;;;;;5052661;28;20024;-69
2023/12/18 01:22:48;;;;;;;11.52;6.80;;;;;;;;;;5052618;28;20025;-69
2023/12/18 01:25:14;;;;;;;14.52;7.30;;;;;;;;;;5052354;28;20029;-69
2023/12/18 01:27:41;;;;;;;16.05;7.05;;;;;;;;;;5052729;28;20031;-69
2023/12/18 01:30:08;;;;;;;14.98;7.25;;;;;;;;;;5052463;28;20471;-69
2023/12/18 01:32:34;;;;;;;14.85;5.88;;;;;;;;;;5052374;28;20032;-69
2023/12/18 01:35:00;;;;;;;11.82;6.00;;;;;;;;;;5051670;28;20439;-69
2023/12/18 01:37:25;;;;;;;12.88;6.38;;;;;;;;;;5052510;28;20078;-69
2023/12/18 01:39:50;;;;;;;15.43;8.65;;;;;;;;;;5052260;28;20351;-69
2023/12/18 01:42:16;;;;;;;11.48;5.43;;;;;;;;;;5052483;28;20033;-69
2023/12/18 01:44:41;;;;;;;14.18;6.57;;;;;;;;;;5052173;28;20036;-69
2023/12/18 01:47:08;;;;;;;11.98;6.07;;;;;;;;;;5051849;28;20045;-69
2023/12/18 01:49:33;;;;;;;17.27;6.53;;;;;;;;;;5052420;28;20021;-69
2023/12/18 01:51:59;;;;;;;12.20;6.55;;;;;;;;;;5052440;28;20178;-69
2023/12/18 01:54:25;;;;;;;14.93;6.22;;;;;;;;;;5051859;28;20049;-70
2023/12/18 01:56:52;;;;;;;12.05;5.03;;;;;;;;;;5052351;28;20087;-69
2023/12/18 01:59:19;;;;;;;14.68;6.28;;;;;;;;;;5052314;28;20021;-69
2023/12/18 02:01:46;;;;;;;10.45;5.13;;;;;;;;;;5052404;28;20063;-69
2023/12/18 02:04:12;;;;;;;14.93;6.60;;;;;;;;;;5052289;28;20021;-69
2023/12/18 02:06:37;;;;;;;12.07;5.82;;;;;;;;;;5052090;28;20503;-69
2023/12/18 02:09:02;;;;;;;13.70;6.40;;;;;;;;;;5051987;28;20417;-69
2023/12/18 02:11:28;;;;;;;14.15;6.13;;;;;;;;;;5052130;28;20116;-69
2023/12/18 02:13:54;;;;;;;10.00;5.38;;;;;;;;;;5052182;28;20052;-70
2023/12/18 02:16:19;;;;;;;13.82;5.95;;;;;;;;;;5052129;28;20037;-69
2023/12/18 02:18:46;;;;;;;13.63;5.75;;;;;;;;;;5051987;28;20025;-69
2023/12/18 02:21:17;;;;;;;10.85;5.28;;;;;;;;;;5052231;28;20029;-70
2023/12/18 02:23:43;;;;;;;14.63;5.95;;;;;;;;;;5051969;28;20025;-69
2023/12/18 02:26:09;;;;;;;12.85;5.95;;;;;;;;;;5051856;28;20036;-69
2023/12/18 02:28:34;;;;;;;9.80;5.65;;;;;;;;;;5052015;28;20031;-69
2023/12/18 02:31:03;;;;;;;13.98;6.28;;;;;;;;;;5051942;28;20398;-69
2023/12/18 02:33:28;;;;;;;15.20;6.30;;;;;;;;;;5051861;28;20378;-69
2023/12/18 02:36:00;;;;;;;11.77;6.03;;;;;;;;;;5052071;28;20032;-69
2023/12/18 02:38:25;;;;;;;14.88;5.00;;;;;;;;;;5051733;28;20449;-70
2023/12/18 02:40:51;;;;;;;15.82;5.40;;;;;;;;;;5051983;28;20016;-69
2023/12/18 02:43:16;;;;;;;10.65;5.57;;;;;;;;;;5051895;28;20029;-69
2023/12/18 02:45:41;;;;;;;15.57;7.50;;;;;;;;;;5053546;28;20028;-69
2023/12/18 02:48:07;;;;;;;10.57;5.80;;;;;;;;;;5055249;28;20044;-69
2023/12/18 02:50:32;;;;;;;10.27;5.05;;;;;;;;;;5055377;28;20028;-69
2023/12/18 02:52:58;;;;;;;17.77;5.75;;;;;;;;;;5055112;28;20098;-69
2023/12/18 02:55:23;;;;;;;14.68;5.75;;;;;;;;;;5055339;28;20278;-69
2023/12/18 02:57:49;;;;;;;13.40;4.78;;;;;;;;;;5055327;28;20097;-69
2023/12/18 03:00:14;;;;;;;14.73;5.55;;;;;;;;;;5055244;28;20539;-70
2023/12/18 03:02:40;;;;;;;16.88;5.97;;;;;;;;;;5055146;28;20028;-69
2023/12/18 03:05:05;;;;;;;12.85;4.90;;;;;;;;;;5055286;28;20070;-69
2023/12/18 03:07:31;;;;;;;11.23;5.03;;;;;;;;;;5054900;28;20475;-69
2023/12/18 03:09:56;;;;;;;15.77;5.35;;;;;;;;;;5054905;28;20036;-69
2023/12/18 03:12:22;;;;;;;13.95;5.25;;;;;;;;;;5054895;28;20025;-69
2023/12/18 03:14:47;;;;;;;13.23;5.55;;;;;;;;;;5054860;28;20029;-70
2023/12/18 03:17:13;;;;;;;13.65;5.68;;;;;;;;;;5054956;28;20371;-70
2023/12/18 03:19:38;;;;;;;14.27;5.70;;;;;;;;;;5054839;28;20043;-69
2023/12/18 03:22:03;;;;;;;12.38;4.68;;;;;;;;;;5054796;28;20032;-69
2023/12/18 03:24:29;;;;;;;14.38;6.18;;;;;;;;;;5054593;28;20039;-69
2023/12/18 03:26:54;;;;;;;13.25;5.80;;;;;;;;;;5054430;28;20496;-67
2023/12/18 03:29:20;;;;;;;13.18;5.85;;;;;;;;;;5054581;28;20028;-70
2023/12/18 03:31:45;;;;;;;10.20;5.80;;;;;;;;;;5053353;28;20356;-70
2023/12/18 03:34:11;;;;;;;11.35;5.03;;;;;;;;;;5054660;28;20029;-68
2023/12/18 03:36:36;;;;;;;14.00;5.50;;;;;;;;;;5054176;28;20091;-69
2023/12/18 03:39:02;;;;;;;15.25;5.57;;;;;;;;;;5054550;28;20033;-69
2023/12/18 03:41:27;;;;;;;11.93;3.72;;;;;;;;;;5053201;28;20029;-68
2023/12/18 03:43:53;;;;;;;9.57;4.47;;;;;;;;;;5053300;28;20025;-69
2023/12/18 03:46:18;;;;;;;14.00;4.93;;;;;;;;;;5054023;28;20044;-68
2023/12/18 03:48:43;;;;;;;12.35;4.85;;;;;;;;;;5054044;28;20040;-69
2023/12/18 03:51:10;;;;;;;13.40;5.75;;;;;;;;;;5054106;28;20474;-68
2023/12/18 03:53:36;;;;;;;14.07;4.70;;;;;;;;;;5054121;28;20084;-68
2023/12/18 03:56:01;;;;;;;15.07;5.20;;;;;;;;;;5053879;28;20074;-68
2023/12/18 03:58:27;;;;;;;11.48;5.43;;;;;;;;;;5054146;28;20029;-68
2023/12/18 04:00:52;;;;;;;13.95;5.32;;;;;;;;;;5055287;28;20025;-68
2023/12/18 04:03:17;;;;;;;10.40;3.67;;;;;;;;;;5054176;28;20072;-68
2023/12/18 04:05:43;;;;;;;13.40;4.78;;;;;;;;;;5053877;28;20033;-68
2023/12/18 04:08:08;;;;;;;11.93;5.50;;;;;;;;;;5053987;28;20025;-69
2023/12/18 04:10:34;;;;;;;10.15;5.20;;;;;;;;;;5053868;28;20032;-69
2023/12/18 04:13:00;;;;;;;10.90;5.40;;;;;;;;;;5052600;28;20082;-69
2023/12/18 04:15:26;;;;;;;14.40;5.72;;;;;;;;;;5053719;28;20037;-69
2023/12/18 04:17:52;;;;;;;12.20;5.50;;;;;;;;;;5053788;28;20475;-69
2023/12/18 04:20:18;;;;;;;7.75;4.93;;;;;;;;;;5053555;28;20100;-69
2023/12/18 04:22:43;;;;;;;15.43;6.00;;;;;;;;;;5053624;28;20053;-69
2023/12/18 04:25:09;;;;;;;14.82;5.20;;;;;;;;;;5053620;28;20382;-69
2023/12/18 04:27:34;;;;;;;12.45;6.05;;;;;;;;;;5053487;28;20031;-69
2023/12/18 04:30:00;;;;;;;15.50;6.35;;;;;;;;;;5053446;28;20025;-69
2023/12/18 04:32:26;;;;;;;16.50;5.93;;;;;;;;;;5053496;28;20025;-69
2023/12/18 04:34:51;;;;;;;12.25;4.63;;;;;;;;;;5052989;28;20033;-69
2023/12/18 04:37:17;;;;;;;9.98;5.70;;;;;;;;;;5053491;28;20028;-69
2023/12/18 04:39:42;;;;;;;12.65;5.55;;;;;;;;;;5053275;28;20071;-69
2023/12/18 04:42:08;;;;;;;9.13;4.70;;;;;;;;;;5052005;28;20482;-69
2023/12/18 04:44:33;;;;;;;6.82;4.05;;;;;;;;;;5053068;28;20103;-69
2023/12/18 04:46:59;;;;;;;9.35;4.47;;;;;;;;;;5052760;28;20119;-69
2023/12/18 04:49:25;;;;;;;12.40;5.45;;;;;;;;;;5052913;28;20120;-68
2023/12/18 04:51:50;;;;;;;10.65;4.93;;;;;;;;;;5053234;28;20021;-68
2023/12/18 04:54:15;;;;;;;14.02;6.57;;;;;;;;;;5052934;28;20057;-68
2023/12/18 04:56:41;;;;;;;12.07;5.03;;;;;;;;;;5052867;28;20022;-68
2023/12/18 04:59:06;;;;;;;12.45;5.15;;;;;;;;;;5053064;28;20021;-68
2023/12/18 05:01:32;;;;;;;15.18;6.32;;;;;;;;;;5052962;28;20048;-68
2023/12/18 05:03:57;;;;;;;7.40;4.28;;;;;;;;;;5052670;28;20036;-68
2023/12/18 05:06:25;;;;;;;15.20;5.40;;;;;;;;;;5052660;28;20039;-68
2023/12/18 05:08:51;;;;;;;12.30;5.20;;;;;;;;;;5051452;28;20475;-68
2023/12/18 05:11:18;;;;;;;8.45;3.92;;;;;;;;;;5052689;28;20028;-68
2023/12/18 05:13:44;;;;;;;11.02;5.70;;;;;;;;;;5052772;28;20036;-68
2023/12/18 05:16:09;;;;;;;8.20;4.88;;;;;;;;;;5051518;28;20021;-68
2023/12/18 05:18:35;;;;;;;11.98;4.80;;;;;;;;;;5052420;28;20056;-68
2023/12/18 05:21:01;;;;;;;9.27;4.60;;;;;;;;;;5052705;28;20083;-68
2023/12/18 05:23:26;;;;;;;11.40;4.55;;;;;;;;;;5052606;28;20106;-69
2023/12/18 05:25:51;;;;;;;9.40;4.75;;;;;;;;;;5052613;28;20055;-68
2023/12/18 05:28:18;;;;;;;10.35;4.75;;;;;;;;;;5052549;28;20391;-69
2023/12/18 05:30:43;;;;;;;11.80;4.70;;;;;;;;;;5052404;28;20036;-69
2023/12/18 05:33:10;;;;;;;13.25;5.22;;;;;;;;;;5052306;28;20021;-69
2023/12/18 05:35:35;;;;;;;12.10;4.90;;;;;;;;;;5052397;28;20057;-68
2023/12/18 05:38:01;;;;;;;6.78;4.15;;;;;;;;;;5052479;28;20083;-69
2023/12/18 05:40:26;;;;;;;9.95;4.60;;;;;;;;;;5052533;28;20021;-69
2023/12/18 05:42:52;;;;;;;9.05;3.58;;;;;;;;;;5052445;28;20036;-69
2023/12/18 05:45:17;;;;;;;11.18;5.20;;;;;;;;;;5051964;28;20021;-69
2023/12/18 05:47:42;;;;;;;8.20;4.57;;;;;;;;;;5052024;28;20037;-68
2023/12/18 05:50:08;;;;;;;8.55;4.20;;;;;;;;;;5052533;28;20021;-69
2023/12/18 05:52:34;;;;;;;11.02;5.60;;;;;;;;;;5052255;28;20497;-69
2023/12/18 05:54:59;;;;;;;10.98;4.32;;;;;;;;;;5052419;28;20058;-69
2023/12/18 05:57:25;;;;;;;12.45;5.40;;;;;;;;;;5052244;28;20119;-69
2023/12/18 05:59:50;;;;;;;7.90;4.35;;;;;;;;;;5052161;28;20075;-69
2023/12/18 06:02:15;;;;;;;6.95;4.45;;;;;;;;;;5052014;28;20033;-69
2023/12/18 06:04:43;;;;;;;10.60;4.50;;;;;;;;;;5052073;28;20025;-69
2023/12/18 06:07:10;;;;;;;9.45;4.53;;;;;;;;;;5052118;28;20053;-69
2023/12/18 06:09:36;;;;;;;9.52;5.00;;;;;;;;;;5052033;28;20032;-69
2023/12/18 06:12:02;;;;;;;7.78;4.47;;;;;;;;;;5052182;28;20025;-69
2023/12/18 06:14:27;;;;;;;8.45;4.60;;;;;;;;;;5051805;28;20417;-69
2023/12/18 06:16:53;;;;;;;7.28;4.53;;;;;;;;;;5052037;28;20021;-69
2023/12/18 06:19:18;;;;;;;9.57;4.70;;;;;;;;;;5051982;28;20074;-68
2023/12/18 06:21:44;;;;;;;11.88;4.95;;;;;;;;;;5055557;28;20103;-69
2023/12/18 06:24:09;;;;;;;13.35;5.22;;;;;;;;;;5055763;28;20021;-69
2023/12/18 06:26:35;;;;;;;13.00;4.75;;;;;;;;;;5055515;28;20025;-69
2023/12/18 06:29:00;;;;;;;13.00;4.72;;;;;;;;;;5055527;28;20360;-69
2023/12/18 06:31:25;;;;;;;9.30;4.43;;;;;;;;;;5055766;28;20021;-69
2023/12/18 06:33:51;;;;;;;13.38;5.30;;;;;;;;;;5055719;28;20382;-68
2023/12/18 06:36:17;;;;;;;10.00;4.53;;;;;;;;;;5055575;28;20037;-69
2023/12/18 06:38:43;;;;;;;11.75;4.80;;;;;;;;;;5055591;28;20515;-68
2023/12/18 06:41:09;;;;;;;10.48;5.22;;;;;;;;;;5054286;28;20033;-68
2023/12/18 06:43:34;;;;;;;12.98;5.85;;;;;;;;;;5055357;28;20017;-69
2023/12/18 06:45:59;;;;;;;9.85;4.63;;;;;;;;;;5054664;28;20032;-68
2023/12/18 06:48:25;;;;;;;11.90;5.22;;;;;;;;;;5055361;28;20090;-69
2023/12/18 06:50:51;;;;;;;11.98;4.70;;;;;;;;;;5055381;28;20099;-69
2023/12/18 06:53:16;;;;;;;9.70;4.80;;;;;;;;;;5055104;28;20064;-70
2023/12/18 06:55:42;;;;;;;13.80;4.70;;;;;;;;;;5055237;28;20374;-68
2023/12/18 06:58:07;;;;;;;12.90;6.55;;;;;;;;;;5054877;28;20033;-68
2023/12/18 07:00:33;;;;;;;11.20;4.30;;;;;;;;;;5055172;28;20067;-68
2023/12/18 07:02:58;;;;;;;10.30;4.95;;;;;;;;;;5055243;28;20055;-69
2023/12/18 07:05:24;;;;;;;9.15;3.53;;;;;;;;;;5055090;28;20036;-69
2023/12/18 07:07:50;;;;;;;9.98;4.93;;;;;;;;;;5055148;28;20036;-69
2023/12/18 07:10:16;;;;;;;9.43;4.30;;;;;;;;;;5055712;28;20390;-69
2023/12/18 07:12:41;;;;;;;13.80;4.80;;;;;;;;;;5054595;28;20029;-69
2023/12/18 07:15:07;;;;;;;9.32;5.13;;;;;;;;;;5055027;28;20032;-69
2023/12/18 07:17:32;;;;;;;13.30;5.00;;;;;;;;;;5054694;28;20025;-69
2023/12/18 07:19:58;;;;;;;11.85;4.90;;;;;;;;;;5054878;28;20096;-69
2023/12/18 07:22:23;;;;;;;9.57;4.38;;;;;;;;;;5054851;28;20475;-69
2023/12/18 07:24:48;;;;;;;12.23;4.53;;;;;;;;;;5054646;28;20139;-69
2023/12/18 07:27:14;;;;;;;8.75;4.20;;;;;;;;;;5054459;28;20267;-69
2023/12/18 07:29:40;;;;;;;14.27;6.30;;;;;;;;;;5054677;28;20037;-69
2023/12/18 07:32:06;;;;;;;17.77;6.25;;;;;;;;;;5053371;28;20036;-69
2023/12/18 07:34:31;;;;;;;16.02;5.85;;;;;;;;;;5054491;28;20025;-69
2023/12/18 07:36:56;;;;;;;13.63;5.60;;;;;;;;;;5054643;28;20462;-69
2023/12/18 07:39:22;;;;;;;13.40;5.68;;;;;;;;;;5054617;28;20040;-69
2023/12/18 07:41:47;;;;;;;11.18;5.00;;;;;;;;;;5054353;28;20029;-69
2023/12/18 07:44:13;;;;;;;12.85;5.90;;;;;;;;;;5054422;28;20509;-69
2023/12/18 07:46:39;;;;;;;10.93;4.95;;;;;;;;;;5053546;28;20025;-69
2023/12/18 07:49:04;;;;;;;11.95;5.65;;;;;;;;;;5054325;28;20071;-69
2023/12/18 07:51:30;;;;;;;11.63;5.28;;;;;;;;;;5064849;28;20398;-69
2023/12/18 07:53:55;;;;;;;12.98;6.07;;;;;;;;;;5060708;28;20398;-70
2023/12/18 07:56:21;;;;;;;13.30;6.10;;;;;;;;;;5070201;28;20033;-69
2023/12/18 07:58:47;;;;;;;13.13;5.60;;;;;;;;;;5057077;28;20031;-70
2023/12/18 08:01:16;;;;;;;11.48;5.80;;;;;;;;;;5055839;28;20017;-69
2023/12/18 08:03:42;;;;;;;11.38;5.70;;;;;;;;;;5055812;28;20047;-69
2023/12/18 08:06:07;;;;;;;12.50;5.97;;;;;;;;;;5057037;28;20112;-70
2023/12/18 08:08:33;;;;;;;13.50;5.65;;;;;;;;;;5054273;28;20107;-69
2023/12/18 08:10:58;;;;;;;23.23;5.63;;;;;;;;;;5054021;28;20052;-69
2023/12/18 08:13:24;;;;;;;14.15;6.68;;;;;;;;;;5052290;28;20115;-69
2023/12/18 08:15:49;;;;;;;11.55;5.97;;;;;;;;;;5073560;28;20089;-69
2023/12/18 08:18:15;;;;;;;14.55;5.13;;;;;;;;;;5073467;28;20043;-69
2023/12/18 08:20:42;;;;;;;15.13;5.72;;;;;;;;;;5059974;28;20069;-69
2023/12/18 08:23:08;;;;;;;11.95;5.70;;;;;;;;;;5053403;28;20096;-69
2023/12/18 08:25:33;;;;;;;19.83;6.05;;;;;;;;;;5053037;28;20116;-69
2023/12/18 08:27:59;;;;;;;16.23;6.57;;;;;;;;;;5053413;28;20027;-69
2023/12/18 08:30:24;;;;;;;12.80;6.30;;;;;;;;;;5053199;28;20548;-69
2023/12/18 08:32:49;;;;;;;8.68;4.70;;;;;;;;;;5053363;28;20029;-69
2023/12/18 08:35:15;;;;;;;13.20;5.97;;;;;;;;;;5053329;28;20032;-69
2023/12/18 08:37:40;;;;;;;14.13;6.72;;;;;;;;;;5053682;28;20415;-69
2023/12/18 08:40:06;;;;;;;14.23;5.93;;;;;;;;;;5052956;28;20025;-69
2023/12/18 08:42:32;;;;;;;12.93;6.10;;;;;;;;;;5052794;28;20021;-69
2023/12/18 08:44:57;;;;;;;11.85;6.10;;;;;;;;;;5052595;28;20407;-69
2023/12/18 08:47:22;;;;;;;11.07;6.20;;;;;;;;;;5052677;28;20036;-69
2023/12/18 08:49:48;;;;;;;16.42;5.93;;;;;;;;;;5053154;28;20462;-69
2023/12/18 08:52:13;;;;;;;9.23;4.45;;;;;;;;;;5053856;28;20025;-69
2023/12/18 08:54:38;;;;;;;12.15;6.03;;;;;;;;;;5052580;28;20041;-69
2023/12/18 08:57:04;;;;;;;11.63;5.85;;;;;;;;;;5052540;28;20390;-69
2023/12/18 08:59:29;;;;;;;15.63;7.20;;;;;;;;;;5052815;28;20017;-69
2023/12/18 09:01:55;;;;;;;12.90;6.30;;;;;;;;;;5052874;28;20474;-69
2023/12/18 09:04:20;;;;;;;15.00;6.65;;;;;;;;;;5051499;28;20036;-69
2023/12/18 09:06:45;;;;;;;11.68;5.90;;;;;;;;;;5052662;28;20032;-70
2023/12/18 09:09:11;;;;;;;12.30;6.47;;;;;;;;;;5052272;28;20024;-69
2023/12/18 09:11:37;;;;;;;11.50;5.53;;;;;;;;;;5053136;28;20028;-69
2023/12/18 09:14:05;;;;;;;15.68;6.55;;;;;;;;;;5052563;28;20112;-69
2023/12/18 09:16:31;;;;;;;13.02;6.15;;;;;;;;;;5052609;28;20449;-69
2023/12/18 09:18:59;;;;;;;15.43;6.70;;;;;;;;;;5052587;28;20032;-69
2023/12/18 09:21:24;;;;;;;17.33;6.50;;;;;;;;;;5052095;28;20478;-70
2023/12/18 09:23:50;;;;;;;13.30;6.50;;;;;;;;;;5051803;28;20036;-69
2023/12/18 09:26:15;;;;;;;15.70;6.80;;;;;;;;;;5052470;28;20056;-69
2023/12/18 09:28:42;;;;;;;15.13;6.82;;;;;;;;;;5052266;28;20482;-69
2023/12/18 09:31:08;;;;;;;13.95;6.40;;;;;;;;;;5052447;28;20025;-69
2023/12/18 09:33:34;;;;;;;10.95;5.90;;;;;;;;;;5052444;28;20070;-69
2023/12/18 09:36:00;;;;;;;13.70;6.72;;;;;;;;;;5052313;28;20405;-69
2023/12/18 09:38:26;;;;;;;10.25;6.40;;;;;;;;;;5052156;28;20036;-69
2023/12/18 09:40:51;;;;;;;17.98;6.70;;;;;;;;;;5052421;28;20421;-69
2023/12/18 09:43:18;;;;;;;14.07;6.55;;;;;;;;;;5051820;28;20389;-69
2023/12/18 09:45:47;;;;;;;15.73;6.75;;;;;;;;;;5051647;28;20035;-69
2023/12/18 09:48:14;;;;;;;12.63;6.85;;;;;;;;;;5050431;28;20024;-69
2023/12/18 09:50:40;;;;;;;13.55;7.00;;;;;;;;;;5051541;28;20037;-69
2023/12/18 09:53:10;;;;;;;13.90;6.60;;;;;;;;;;5051967;28;20103;-69
2023/12/18 09:55:36;;;;;;;10.43;6.10;;;;;;;;;;5054245;28;20517;-69
2023/12/18 09:58:02;;;;;;;11.98;5.53;;;;;;;;;;5056237;28;20394;-69
2023/12/18 10:00:29;;;;;;;15.02;7.07;;;;;;;;;;5056211;28;20044;-69
2023/12/18 10:02:56;;;;;;;10.93;6.65;;;;;;;;;;5056195;28;20024;-69
2023/12/18 10:05:21;;;;;;;12.43;6.10;;;;;;;;;;5055996;28;20021;-69
2023/12/18 10:07:47;;;;;;;12.70;6.55;;;;;;;;;;5055875;28;20604;-69
2023/12/18 10:10:12;;;;;;;12.07;6.20;;;;;;;;;;5055890;28;20029;-69
2023/12/18 10:12:38;;;;;;;9.82;4.80;;;;;;;;;;5056495;28;20035;-70
2023/12/18 10:15:08;;;;;;;15.68;7.28;;;;;;;;;;5056230;28;20423;-70
2023/12/18 10:17:34;;;;;;;13.48;6.93;;;;;;;;;;5059181;28;20039;-70
2023/12/18 10:20:02;;;;;;;13.60;6.57;;;;;;;;;;5059737;28;20025;-69
2023/12/18 10:22:28;;;;;;;14.43;6.65;;;;;;;;;;5055217;28;20029;-69
2023/12/18 10:24:56;;;;;;;12.75;7.40;;;;;;;;;;5055381;28;20100;-69
2023/12/18 10:27:22;;;;;;;15.65;7.60;;;;;;;;;;5055693;28;20029;-69
2023/12/18 10:29:47;;;;;;;16.15;7.60;;;;;;;;;;5055528;28;20075;-69
2023/12/18 10:32:13;;;;;;;12.75;7.43;;;;;;;;;;5055740;28;20494;-69
2023/12/18 10:34:39;;;;;;;17.02;7.13;;;;;;;;;;5055408;28;20025;-69
2023/12/18 10:37:04;;;;;;;12.75;7.47;;;;;;;;;;5055419;28;20046;-69
2023/12/18 10:39:36;;;;;;;13.80;6.82;;;;;;;;;;5055382;28;20028;-69
2023/12/18 10:42:05;;;;;;;14.82;6.90;;;;;;;;;;5054947;28;20478;-68
2023/12/18 10:44:33;;;;;;;12.20;7.28;;;;;;;;;;5055910;28;20032;-69
2023/12/18 10:47:00;;;;;;;14.43;7.88;;;;;;;;;;5057407;28;20146;-69
2023/12/18 10:49:28;;;;;;;11.32;7.05;;;;;;;;;;5074190;28;20067;-69
2023/12/18 10:51:55;;;;;;;18.60;6.03;;;;;;;;;;5057387;28;20143;-69
2023/12/18 10:54:21;;;;;;;14.80;6.80;;;;;;;;;;5054417;28;20045;-69
2023/12/18 10:56:48;;;;;;;14.50;7.78;;;;;;;;;;5054868;28;20033;-69
2023/12/18 10:59:17;;;;;;;9.30;5.55;;;;;;;;;;5053772;28;20035;-69
2023/12/18 11:01:44;;;;;;;16.05;6.72;;;;;;;;;;5055441;28;20025;-69
2023/12/18 11:04:12;;;;;;;12.50;6.70;;;;;;;;;;5055265;28;20567;-69
2023/12/18 11:06:39;;;;;;;11.10;5.97;;;;;;;;;;5053181;28;20028;-69
2023/12/18 11:09:05;;;;;;;15.15;5.97;;;;;;;;;;5053214;28;20021;-69
2023/12/18 11:11:33;;;;;;;13.07;6.28;;;;;;;;;;5053014;28;20406;-68
2023/12/18 11:14:30;;;;;;;11.70;5.63;;;;;;;;;;5053449;28;20033;-69
2023/12/18 11:17:15;;;;;;;10.93;6.13;;;;;;;;;;5053685;28;20406;-70
2023/12/18 11:19:57;;;;;;;14.10;5.00;;;;;;;;;;5053131;28;20454;-67
2023/12/18 11:22:55;;;;;;;12.80;6.70;;;;;;;;;;5053401;28;20374;-68
2023/12/18 11:25:20;;;;;;;9.00;5.43;;;;;;;;;;5054437;28;20103;-67
2023/12/18 11:27:52;;;;;;;12.18;7.75;;;;;;;;;;5054869;28;20049;-68
2023/12/18 11:30:28;;;;;;;13.98;7.43;;;;;;;;;;5054851;28;20500;-68
2023/12/18 11:32:53;;;;;;;10.20;6.68;;;;;;;;;;5054845;28;20386;-68
2023/12/18 11:35:30;;;;;;;12.75;7.20;;;;;;;;;;5054513;28;20028;-68
2023/12/18 11:38:08;;;;;;;11.43;6.63;;;;;;;;;;5054738;28;20035;-68
2023/12/18 11:40:39;;;;;;;14.52;6.78;;;;;;;;;;5054660;28;20029;-68
2023/12/18 11:43:06;;;;;;;13.65;8.05;;;;;;;;;;5054702;28;20025;-68
2023/12/18 11:45:34;;;;;;;14.10;7.00;;;;;;;;;;5056741;28;20025;-68
2023/12/18 11:48:02;;;;;;;11.85;6.38;;;;;;;;;;5053964;28;20053;-68
2023/12/18 11:50:32;;;;;;;12.65;7.72;;;;;;;;;;5054614;28;20490;-68
2023/12/18 11:52:58;;;;;;;11.63;6.88;;;;;;;;;;5054261;28;20394;-68
2023/12/18 11:55:44;;;;;;;14.98;7.05;;;;;;;;;;5054442;28;20470;-68
2023/12/18 11:58:10;;;;;;;10.73;7.05;;;;;;;;;;5054389;28;20052;-68
2023/12/18 12:00:37;;;;;;;16.83;6.72;;;;;;;;;;5054176;28;20053;-68
2023/12/18 12:03:04;;;;;;;14.05;6.68;;;;;;;;;;5053912;28;20382;-68
2023/12/18 12:05:31;;;;;;;14.10;6.75;;;;;;;;;;5054209;28;20425;-68
2023/12/18 12:07:57;;;;;;;18.30;7.32;;;;;;;;;;5054120;28;20024;-68
2023/12/18 12:10:23;;;;;;;16.02;7.78;;;;;;;;;;5054030;28;20466;-68
2023/12/18 12:12:55;;;;;;;15.60;6.63;;;;;;;;;;5053901;28;20044;-68
2023/12/18 12:15:24;;;;;;;12.57;7.43;;;;;;;;;;5053917;28;20506;-68
2023/12/18 12:17:50;;;;;;;13.63;7.65;;;;;;;;;;5053123;28;20108;-68
2023/12/18 12:20:17;;;;;;;18.38;8.35;;;;;;;;;;5053807;28;20108;-68
2023/12/18 12:22:43;;;;;;;14.93;7.25;;;;;;;;;;5053824;28;20017;-68
2023/12/18 12:25:09;;;;;;;14.55;7.47;;;;;;;;;;5053851;28;20103;-68
2023/12/18 12:27:34;;;;;;;13.63;7.93;;;;;;;;;;5053793;28;20116;-68
2023/12/18 12:30:00;;;;;;;15.23;8.30;;;;;;;;;;5053599;28;20024;-68
2023/12/18 12:32:25;;;;;;;17.38;8.40;;;;;;;;;;5053497;28;20021;-68
2023/12/18 12:34:51;;;;;;;20.17;8.48;;;;;;;;;;5053675;28;20029;-68
2023/12/18 12:37:16;;;;;;;16.85;8.50;;;;;;;;;;5053599;28;20013;-68
2023/12/18 12:40:02;;;;;;;19.55;9.82;;;;;;;;;;5053661;28;20044;-68
2023/12/18 12:42:29;;;;;;;19.98;8.65;;;;;;;;;;5053652;28;20035;-68
2023/12/18 12:44:54;;;;;;;14.65;7.88;;;;;;;;;;5055558;28;20023;-68
2023/12/18 12:47:20;;;;;;;15.38;8.65;;;;;;;;;;5052793;28;20020;-67
2023/12/18 12:49:47;;;;;;;15.68;7.43;;;;;;;;;;5053165;28;20509;-67
2023/12/18 12:52:16;;;;;;;14.57;7.20;;;;;;;;;;5053302;28;20482;-67
2023/12/18 12:54:45;;;;;;;16.30;9.07;;;;;;;;;;5053088;28;20560;-69
2023/12/18 12:57:14;;;;;;;20.80;8.63;;;;;;;;;;5053394;28;20532;-69
2023/12/18 12:59:52;;;;;;;14.25;7.72;;;;;;;;;;5049958;28;20033;-69
2023/12/18 13:02:18;;;;;;;15.13;6.78;;;;;;;;;;5044588;28;20098;-68
2023/12/18 13:04:44;;;;;;;19.27;9.45;;;;;;;;;;5050983;28;20056;-68
2023/12/18 13:07:10;;;;;;;15.82;8.02;;;;;;;;;;5052140;28;20028;-68
2023/12/18 13:09:35;;;;;;;14.80;8.68;;;;;;;;;;5059088;28;20070;-68
2023/12/18 13:12:04;;;;;;;13.50;8.32;;;;;;;;;;5068723;28;20013;-68
2023/12/18 13:14:30;;;;;;;15.48;8.55;;;;;;;;;;5052555;28;20029;-68
2023/12/18 13:16:55;;;;;;;17.73;7.88;;;;;;;;;;5055023;28;20052;-69
2023/12/18 13:19:21;;;;;;;18.48;8.45;;;;;;;;;;5054541;28;20100;-68
2023/12/18 13:21:47;;;;;;;20.75;8.85;;;;;;;;;;5052852;28;20059;-69
2023/12/18 13:24:12;;;;;;;19.45;9.48;;;;;;;;;;5052893;28;20023;-68
2023/12/18 13:26:38;;;;;;;15.15;8.48;;;;;;;;;;5052065;28;20029;-68
2023/12/18 13:29:04;;;;;;;15.10;7.82;;;;;;;;;;5052652;28;20467;-68
2023/12/18 13:31:33;;;;;;;17.95;8.27;;;;;;;;;;5052097;28;20421;-68
2023/12/18 13:33:59;;;;;;;15.80;8.80;;;;;;;;;;5051146;28;20393;-68
2023/12/18 13:36:24;;;;;;;24.02;9.40;;;;;;;;;;5034130;28;20032;-68
2023/12/18 13:38:50;;;;;;;17.70;9.13;;;;;;;;;;5035136;28;20025;-68
2023/12/18 13:41:15;;;;;;;16.60;8.50;;;;;;;;;;5032370;28;20021;-68
2023/12/18 13:43:41;;;;;;;20.45;9.35;;;;;;;;;;5032412;28;20022;-68
2023/12/18 13:46:07;;;;;;;22.67;9.10;;;;;;;;;;5045796;28;20106;-68
2023/12/18 13:48:33;;;;;;;19.27;9.15;;;;;;;;;;5051224;28;20025;-68
2023/12/18 13:51:00;;;;;;;23.45;9.35;;;;;;;;;;5051285;28;20035;-68
2023/12/18 13:53:25;;;;;;;20.95;8.98;;;;;;;;;;5049402;28;20071;-68
2023/12/18 13:55:51;;;;;;;18.55;8.70;;;;;;;;;;5051791;28;20100;-69
2023/12/18 13:58:16;;;;;;;17.80;8.68;;;;;;;;;;5052121;28;20032;-69
2023/12/18 14:00:45;;;;;;;19.27;9.30;;;;;;;;;;5048369;28;20032;-69
2023/12/18 14:03:13;;;;;;;18.80;9.63;;;;;;;;;;5052350;28;20025;-69
2023/12/18 14:05:39;;;;;;;19.90;9.25;;;;;;;;;;5052067;28;20025;-68
2023/12/18 14:08:04;;;;;;;16.30;9.75;;;;;;;;;;5052010;28;20116;-69
2023/12/18 14:10:30;;;;;;;17.50;9.23;;;;;;;;;;5052006;28;20060;-70
2023/12/18 14:12:55;;;;;;;17.75;9.20;;;;;;;;;;5051866;28;20075;-68
2023/12/18 14:15:20;;;;;;;17.42;8.57;;;;;;;;;;5051901;28;20482;-70
2023/12/18 14:17:46;;;;;;;16.77;7.78;;;;;;;;;;5052285;28;20514;-68
2023/12/18 14:20:11;;;;;;;16.60;8.80;;;;;;;;;;5052077;28;20117;-68
2023/12/18 14:22:37;;;;;;;15.40;8.43;;;;;;;;;;5051958;28;20175;-68
2023/12/18 14:25:05;;;;;;;17.33;9.15;;;;;;;;;;5051981;28;20462;-68